Terminal Aerodrome Forecast
Issued by NWS

Home | Current Version | Previous Version | Text Only | Print | Product List | Glossary On
Versions: 1 2 3 4 5 6 7 8 9 10 11 12 13 14 15 16 17 18
000
FTUS45 KFGZ 282353
TAFSEZ
TAF
KSEZ 282353Z 2900/2924 05011KT P6SM SCT090
     FM291800 19007KT P6SM SCT090 PROB30 2918/2924 VRB15G25KT 4SM
      -TSRA BKN080CB=

USA.gov is the U.S. government's official web portal to all federal, state and local government web resources and services.